Time;durP1;ratioP1;P1;durP2;ratioP2;P2;SDS_P1;SDS_P2;PMS_P1;PMS_P2;Temp;Humidity;BMP_temperature;BMP_pressure;BME280_temperature;BME280_humidity;BME280_pressure;Samples;Min_cycle;Max_cycle;Signal;HPM_P1;HPM_P2
2023/05/14 00:00:22;;;;;;;21.65;16.00;;;;;;;;;;5031037;28;20276;-69
2023/05/14 00:02:47;;;;;;;26.27;16.48;;;;;;;;;;5028178;28;20565;-69
2023/05/14 00:05:13;;;;;;;19.10;17.02;;;;;;;;;;5030781;28;20201;-69
2023/05/14 00:07:38;;;;;;;23.27;16.58;;;;;;;;;;5032482;28;20229;-70
2023/05/14 00:10:04;;;;;;;25.67;16.80;;;;;;;;;;5046647;28;20275;-70
2023/05/14 00:12:31;;;;;;;21.83;15.88;;;;;;;;;;5042307;28;20186;-69
2023/05/14 00:14:56;;;;;;;23.05;15.70;;;;;;;;;;5045578;28;20272;-69
2023/05/14 00:17:22;;;;;;;25.98;17.15;;;;;;;;;;5048857;28;20281;-69
2023/05/14 00:19:47;;;;;;;23.00;16.70;;;;;;;;;;5045811;28;20189;-69
2023/05/14 00:22:13;;;;;;;25.48;15.95;;;;;;;;;;5035239;28;20236;-69
2023/05/14 00:24:38;;;;;;;23.02;16.67;;;;;;;;;;5040370;28;20209;-69
2023/05/14 00:27:04;;;;;;;23.30;16.42;;;;;;;;;;5038228;28;20193;-71
2023/05/14 00:29:29;;;;;;;23.73;16.77;;;;;;;;;;5041109;28;20775;-69
2023/05/14 00:31:55;;;;;;;22.45;16.08;;;;;;;;;;5045207;28;20193;-69
2023/05/14 00:34:20;;;;;;;25.23;16.80;;;;;;;;;;5048360;28;20197;-70
2023/05/14 00:36:46;;;;;;;24.98;16.67;;;;;;;;;;5042192;28;20613;-69
2023/05/14 00:39:12;;;;;;;20.00;15.82;;;;;;;;;;5038795;28;20551;-71
2023/05/14 00:41:37;;;;;;;19.45;16.33;;;;;;;;;;5047240;28;20228;-69
2023/05/14 00:44:03;;;;;;;22.85;16.85;;;;;;;;;;5043484;28;20686;-69
2023/05/14 00:46:28;;;;;;;24.50;16.80;;;;;;;;;;5031326;28;20227;-69
2023/05/14 00:48:54;;;;;;;22.33;17.10;;;;;;;;;;5033315;28;20637;-69
2023/05/14 00:51:20;;;;;;;20.83;16.05;;;;;;;;;;5028499;28;20186;-70
2023/05/14 00:53:46;;;;;;;21.48;16.77;;;;;;;;;;5042918;28;20348;-69
2023/05/14 00:56:13;;;;;;;20.60;15.40;;;;;;;;;;5029029;28;20261;-69
2023/05/14 00:58:38;;;;;;;21.98;16.13;;;;;;;;;;5029530;28;20189;-69
2023/05/14 01:01:04;;;;;;;21.20;16.45;;;;;;;;;;5047290;28;20216;-69
2023/05/14 01:03:30;;;;;;;24.67;16.65;;;;;;;;;;5047551;28;20227;-69
2023/05/14 01:06:14;;;;;;;23.60;17.27;;;;;;;;;;5046970;28;20186;-70
2023/05/14 01:09:05;;;;;;;22.33;16.38;;;;;;;;;;5027824;28;20198;-69
2023/05/14 01:12:05;;;;;;;29.55;17.52;;;;;;;;;;5048173;28;20182;-68
2023/05/14 01:14:48;;;;;;;24.02;17.23;;;;;;;;;;5047637;28;20220;-69
2023/05/14 01:17:18;;;;;;;26.42;18.60;;;;;;;;;;5040579;28;20269;-69
2023/05/14 01:19:46;;;;;;;26.33;17.60;;;;;;;;;;5047610;28;20634;-69
2023/05/14 01:22:11;;;;;;;23.13;16.75;;;;;;;;;;5045944;28;20181;-69
2023/05/14 01:24:37;;;;;;;25.92;17.20;;;;;;;;;;5046759;28;20277;-69
2023/05/14 01:27:08;;;;;;;24.98;17.73;;;;;;;;;;5047563;28;20189;-69
2023/05/14 01:29:37;;;;;;;25.42;17.83;;;;;;;;;;5047974;28;20197;-69
2023/05/14 01:32:06;;;;;;;24.25;16.55;;;;;;;;;;5032631;28;20258;-70
2023/05/14 01:34:34;;;;;;;25.08;17.10;;;;;;;;;;5041174;28;20326;-69
2023/05/14 01:37:00;;;;;;;23.85;18.30;;;;;;;;;;5032044;28;20269;-70
2023/05/14 01:39:26;;;;;;;23.73;17.60;;;;;;;;;;5032852;28;20501;-69
2023/05/14 01:41:53;;;;;;;22.73;17.33;;;;;;;;;;5030089;28;20181;-70
2023/05/14 01:44:19;;;;;;;27.50;18.95;;;;;;;;;;5037024;28;20248;-70
2023/05/14 01:46:44;;;;;;;23.52;18.33;;;;;;;;;;5046865;28;20787;-70
2023/05/14 01:49:09;;;;;;;22.60;17.70;;;;;;;;;;5042749;28;20226;-70
2023/05/14 01:51:35;;;;;;;26.40;18.73;;;;;;;;;;5047392;28;20636;-70
2023/05/14 01:54:00;;;;;;;25.65;19.08;;;;;;;;;;5043975;28;20261;-70
2023/05/14 01:56:26;;;;;;;27.98;19.48;;;;;;;;;;5035795;28;20201;-70
2023/05/14 01:58:51;;;;;;;29.63;18.95;;;;;;;;;;5040317;28;20742;-70
2023/05/14 02:01:16;;;;;;;23.00;19.50;;;;;;;;;;5042904;28;20224;-70
2023/05/14 02:03:42;;;;;;;25.55;18.80;;;;;;;;;;5050155;28;20543;-70
2023/05/14 02:06:07;;;;;;;27.40;19.85;;;;;;;;;;5046686;28;20189;-70
2023/05/14 02:08:33;;;;;;;25.92;20.73;;;;;;;;;;5032682;28;20193;-70
2023/05/14 02:10:58;;;;;;;27.08;20.33;;;;;;;;;;5037536;28;20194;-70
2023/05/14 02:13:24;;;;;;;25.23;18.98;;;;;;;;;;5039515;28;20181;-70
2023/05/14 02:15:50;;;;;;;26.70;19.10;;;;;;;;;;5035218;28;20220;-70
2023/05/14 02:18:15;;;;;;;26.58;20.77;;;;;;;;;;5036910;28;20213;-70
2023/05/14 02:20:41;;;;;;;27.23;19.55;;;;;;;;;;5036446;28;20186;-69
2023/05/14 02:23:06;;;;;;;28.65;20.38;;;;;;;;;;5043126;28;20252;-70
2023/05/14 02:25:32;;;;;;;27.98;19.98;;;;;;;;;;5050072;28;20255;-70
2023/05/14 02:27:57;;;;;;;27.17;21.65;;;;;;;;;;5050267;28;20679;-70
2023/05/14 02:30:22;;;;;;;26.50;21.05;;;;;;;;;;5044146;28;20232;-70
2023/05/14 02:32:48;;;;;;;28.02;21.33;;;;;;;;;;5041684;28;20197;-69
2023/05/14 02:35:13;;;;;;;31.92;21.55;;;;;;;;;;5039760;28;20193;-69
2023/05/14 02:37:38;;;;;;;27.58;20.08;;;;;;;;;;5033347;28;20563;-70
2023/05/14 02:40:04;;;;;;;26.23;20.23;;;;;;;;;;5048977;28;20232;-70
2023/05/14 02:42:30;;;;;;;33.47;21.85;;;;;;;;;;5051220;28;20182;-69
2023/05/14 02:44:57;;;;;;;28.17;20.65;;;;;;;;;;5040997;28;20576;-69
2023/05/14 02:47:22;;;;;;;30.15;21.08;;;;;;;;;;5049448;28;20307;-69
2023/05/14 02:49:47;;;;;;;25.00;20.48;;;;;;;;;;5050495;28;20272;-69
2023/05/14 02:52:13;;;;;;;27.38;21.42;;;;;;;;;;5035230;28;20215;-69
2023/05/14 02:54:38;;;;;;;28.20;22.13;;;;;;;;;;5032974;28;20581;-70
2023/05/14 02:57:04;;;;;;;29.35;22.20;;;;;;;;;;5037091;28;20182;-69
2023/05/14 02:59:30;;;;;;;27.65;21.90;;;;;;;;;;5042021;28;20319;-69
2023/05/14 03:01:55;;;;;;;32.00;23.38;;;;;;;;;;5047443;28;20213;-69
2023/05/14 03:04:21;;;;;;;35.25;22.35;;;;;;;;;;5038028;28;20667;-69
2023/05/14 03:06:46;;;;;;;30.40;23.00;;;;;;;;;;5044856;28;20212;-69
2023/05/14 03:09:11;;;;;;;28.92;21.20;;;;;;;;;;5034050;28;20264;-68
2023/05/14 03:11:37;;;;;;;30.33;22.27;;;;;;;;;;5038431;28;20653;-68
2023/05/14 03:14:02;;;;;;;30.83;22.27;;;;;;;;;;5047812;28;20182;-69
2023/05/14 03:16:27;;;;;;;34.85;23.08;;;;;;;;;;5047831;28;20355;-69
2023/05/14 03:18:53;;;;;;;33.25;23.77;;;;;;;;;;5036044;28;20199;-70
2023/05/14 03:21:18;;;;;;;34.65;23.65;;;;;;;;;;5047433;28;20198;-70
2023/05/14 03:23:44;;;;;;;36.60;24.83;;;;;;;;;;5050176;28;20617;-70
2023/05/14 03:26:09;;;;;;;32.00;24.45;;;;;;;;;;5049940;28;20683;-69
2023/05/14 03:28:35;;;;;;;32.67;23.17;;;;;;;;;;5049285;28;20355;-70
2023/05/14 03:31:00;;;;;;;31.38;23.05;;;;;;;;;;5041668;28;20558;-70
2023/05/14 03:33:25;;;;;;;29.08;22.48;;;;;;;;;;5049115;28;20247;-70
2023/05/14 03:35:51;;;;;;;30.02;22.40;;;;;;;;;;5042002;28;20193;-69
2023/05/14 03:38:16;;;;;;;29.90;22.10;;;;;;;;;;5036547;28;20189;-69
2023/05/14 03:40:43;;;;;;;30.40;22.27;;;;;;;;;;5037966;28;20189;-69
2023/05/14 03:43:09;;;;;;;29.75;22.67;;;;;;;;;;5042544;28;20210;-69
2023/05/14 03:45:34;;;;;;;37.45;23.75;;;;;;;;;;5044918;28;20550;-68
2023/05/14 03:47:59;;;;;;;32.55;22.40;;;;;;;;;;5041695;28;20244;-69
2023/05/14 03:50:25;;;;;;;33.05;23.17;;;;;;;;;;5043244;28;20194;-69
2023/05/14 03:52:51;;;;;;;35.05;23.45;;;;;;;;;;5028515;28;20677;-69
2023/05/14 03:55:18;;;;;;;31.00;22.10;;;;;;;;;;5043039;28;20190;-69
2023/05/14 03:57:44;;;;;;;34.03;23.00;;;;;;;;;;5033861;28;20556;-69
2023/05/14 04:00:10;;;;;;;31.65;22.90;;;;;;;;;;5040090;28;20193;-70
2023/05/14 04:02:35;;;;;;;32.03;22.58;;;;;;;;;;5046992;28;20481;-69
2023/05/14 04:05:01;;;;;;;39.30;24.83;;;;;;;;;;5042934;28;20228;-69
2023/05/14 04:07:26;;;;;;;34.65;22.17;;;;;;;;;;5033095;28;20205;-69
2023/05/14 04:09:51;;;;;;;32.83;22.33;;;;;;;;;;5039355;28;20260;-69
2023/05/14 04:12:17;;;;;;;28.23;23.25;;;;;;;;;;5037474;28;20563;-69
2023/05/14 04:14:42;;;;;;;29.88;21.40;;;;;;;;;;5046535;28;20276;-69
2023/05/14 04:17:07;;;;;;;33.03;22.63;;;;;;;;;;5044166;28;20189;-69
2023/05/14 04:19:33;;;;;;;27.92;21.73;;;;;;;;;;5032127;28;20285;-69
2023/05/14 04:21:58;;;;;;;35.67;22.58;;;;;;;;;;5035292;28;20201;-69
2023/05/14 04:24:24;;;;;;;29.25;21.10;;;;;;;;;;5041720;28;20297;-69
2023/05/14 04:26:49;;;;;;;27.33;21.80;;;;;;;;;;5048997;28;20193;-68
2023/05/14 04:29:14;;;;;;;33.25;21.75;;;;;;;;;;5038299;28;20714;-69
2023/05/14 04:31:40;;;;;;;32.72;22.33;;;;;;;;;;5048090;28;20354;-69
2023/05/14 04:34:06;;;;;;;28.27;21.75;;;;;;;;;;5044643;28;20182;-68
2023/05/14 04:36:31;;;;;;;27.08;20.75;;;;;;;;;;5047165;28;20327;-68
2023/05/14 04:38:57;;;;;;;33.92;22.30;;;;;;;;;;5044400;28;20693;-69
2023/05/14 04:41:22;;;;;;;34.10;23.67;;;;;;;;;;5039307;28;20704;-69
2023/05/14 04:43:48;;;;;;;38.10;23.52;;;;;;;;;;5032144;28;20206;-69
2023/05/14 04:46:14;;;;;;;39.05;25.13;;;;;;;;;;5042004;28;20245;-69
2023/05/14 04:48:39;;;;;;;31.85;23.17;;;;;;;;;;5030850;28;20217;-69
2023/05/14 04:51:05;;;;;;;36.58;23.90;;;;;;;;;;5043693;28;20181;-69
2023/05/14 04:53:31;;;;;;;32.88;22.88;;;;;;;;;;5036786;28;20214;-68
2023/05/14 04:55:57;;;;;;;32.45;24.17;;;;;;;;;;5043745;28;20191;-69
2023/05/14 04:58:22;;;;;;;36.75;24.17;;;;;;;;;;5041912;28;20681;-69
2023/05/14 05:00:48;;;;;;;31.45;22.42;;;;;;;;;;5032207;28;20201;-69
2023/05/14 05:03:14;;;;;;;33.90;23.13;;;;;;;;;;5042607;28;20236;-68
2023/05/14 05:05:39;;;;;;;35.38;24.10;;;;;;;;;;5043057;28;20832;-68
2023/05/14 05:08:04;;;;;;;38.08;26.08;;;;;;;;;;5041019;28;20272;-69
2023/05/14 05:10:30;;;;;;;37.75;27.45;;;;;;;;;;5050800;28;20197;-69
2023/05/14 05:12:55;;;;;;;40.25;31.75;;;;;;;;;;5042802;28;20194;-69
2023/05/14 05:15:21;;;;;;;57.30;41.67;;;;;;;;;;5039970;28;20182;-69
2023/05/14 05:17:46;;;;;;;49.78;36.13;;;;;;;;;;5040477;28;20194;-69
2023/05/14 05:20:12;;;;;;;46.28;36.00;;;;;;;;;;5044071;28;20705;-68
2023/05/14 05:22:37;;;;;;;48.03;37.08;;;;;;;;;;5045573;28;20203;-69
2023/05/14 05:25:06;;;;;;;74.68;59.95;;;;;;;;;;5033372;28;20236;-69
2023/05/14 05:27:32;;;;;;;60.30;48.35;;;;;;;;;;5037397;28;20328;-69
2023/05/14 05:29:59;;;;;;;55.60;48.83;;;;;;;;;;5027607;28;20186;-70
2023/05/14 05:32:24;;;;;;;52.55;44.67;;;;;;;;;;5035180;28;20197;-69
2023/05/14 05:34:50;;;;;;;55.97;40.38;;;;;;;;;;5035551;28;20230;-69
2023/05/14 05:37:16;;;;;;;54.15;41.15;;;;;;;;;;5046257;28;20234;-69
2023/05/14 05:39:41;;;;;;;57.63;42.30;;;;;;;;;;5030470;28;20628;-69
2023/05/14 05:42:07;;;;;;;63.72;43.35;;;;;;;;;;5036501;28;20197;-69
2023/05/14 05:44:32;;;;;;;56.70;43.60;;;;;;;;;;5028249;28;20277;-69
2023/05/14 05:46:58;;;;;;;59.88;43.00;;;;;;;;;;5037037;28;20601;-69
2023/05/14 05:49:23;;;;;;;60.30;43.08;;;;;;;;;;5036440;28;20228;-69
2023/05/14 05:51:49;;;;;;;52.58;39.10;;;;;;;;;;5046024;28;20189;-69
2023/05/14 05:54:14;;;;;;;56.28;39.97;;;;;;;;;;5047766;28;20193;-69
2023/05/14 05:56:39;;;;;;;46.45;36.10;;;;;;;;;;5047132;28;20224;-69
2023/05/14 05:59:05;;;;;;;50.47;35.25;;;;;;;;;;5047712;28;20201;-69
2023/05/14 06:01:30;;;;;;;44.70;32.30;;;;;;;;;;5050737;28;20260;-68
2023/05/14 06:03:56;;;;;;;37.65;28.50;;;;;;;;;;5043576;28;20206;-68
2023/05/14 06:06:21;;;;;;;36.08;26.80;;;;;;;;;;5059896;28;20232;-68
2023/05/14 06:08:47;;;;;;;31.75;24.80;;;;;;;;;;5050191;28;20177;-69
2023/05/14 06:11:12;;;;;;;28.45;22.77;;;;;;;;;;5036180;28;20189;-69
2023/05/14 06:13:38;;;;;;;28.17;20.95;;;;;;;;;;5050498;28;20231;-69
2023/05/14 06:16:03;;;;;;;27.40;20.63;;;;;;;;;;5038216;28;20212;-68
2023/05/14 06:18:28;;;;;;;28.75;20.63;;;;;;;;;;5051149;28;20286;-68
2023/05/14 06:20:55;;;;;;;26.25;19.35;;;;;;;;;;5051292;28;20276;-68
2023/05/14 06:23:21;;;;;;;22.65;17.92;;;;;;;;;;5043318;28;20289;-68
2023/05/14 06:25:48;;;;;;;26.40;19.92;;;;;;;;;;5045011;28;20752;-68
2023/05/14 06:28:13;;;;;;;28.02;18.75;;;;;;;;;;5036581;28;20197;-69
2023/05/14 06:30:38;;;;;;;29.67;19.58;;;;;;;;;;5049140;28;20192;-70
2023/05/14 06:33:04;;;;;;;25.58;20.08;;;;;;;;;;5048300;28;20624;-68
2023/05/14 06:35:29;;;;;;;28.02;20.00;;;;;;;;;;5045701;28;20268;-69
2023/05/14 06:37:54;;;;;;;26.13;19.88;;;;;;;;;;5047440;28;20633;-68
2023/05/14 06:40:20;;;;;;;26.42;19.52;;;;;;;;;;5048556;28;20189;-68
2023/05/14 06:42:45;;;;;;;28.17;19.23;;;;;;;;;;5050809;28;20193;-68
2023/05/14 06:45:11;;;;;;;29.00;19.88;;;;;;;;;;5048642;28;20255;-68
2023/05/14 06:47:36;;;;;;;25.15;19.30;;;;;;;;;;5049281;28;20225;-69
2023/05/14 06:50:01;;;;;;;30.20;19.25;;;;;;;;;;5050452;28;20189;-69
2023/05/14 06:52:27;;;;;;;26.85;19.75;;;;;;;;;;5047368;28;20707;-69
2023/05/14 06:54:52;;;;;;;26.67;18.73;;;;;;;;;;5056108;28;20706;-68
2023/05/14 06:57:17;;;;;;;31.77;19.25;;;;;;;;;;5047813;28;20190;-71
2023/05/14 06:59:43;;;;;;;25.77;18.73;;;;;;;;;;5030877;28;20196;-68
2023/05/14 07:02:08;;;;;;;21.48;16.65;;;;;;;;;;5048386;28;20243;-69
2023/05/14 07:04:35;;;;;;;22.90;17.38;;;;;;;;;;5050946;28;20305;-68
2023/05/14 07:07:00;;;;;;;25.88;18.45;;;;;;;;;;5052300;28;20182;-68
2023/05/14 07:09:25;;;;;;;21.55;17.33;;;;;;;;;;5037545;28;20186;-69
2023/05/14 07:11:51;;;;;;;22.65;18.15;;;;;;;;;;5047900;28;20616;-68
2023/05/14 07:14:16;;;;;;;23.40;18.17;;;;;;;;;;5036057;28;20185;-68
2023/05/14 07:16:41;;;;;;;21.83;18.55;;;;;;;;;;5047918;28;20220;-69
2023/05/14 07:19:07;;;;;;;24.52;18.38;;;;;;;;;;5045745;28;20243;-69
2023/05/14 07:21:34;;;;;;;23.77;18.48;;;;;;;;;;5045113;28;20484;-68
2023/05/14 07:23:59;;;;;;;26.70;18.20;;;;;;;;;;5036069;28;20642;-68
2023/05/14 07:26:25;;;;;;;22.20;19.02;;;;;;;;;;5035362;28;20197;-69
2023/05/14 07:28:50;;;;;;;21.50;16.90;;;;;;;;;;5037914;28;20498;-69
2023/05/14 07:31:16;;;;;;;25.02;16.83;;;;;;;;;;5033436;28;20226;-68
2023/05/14 07:33:41;;;;;;;20.63;16.45;;;;;;;;;;5045948;28;20186;-68
2023/05/14 07:36:06;;;;;;;19.33;15.93;;;;;;;;;;5033317;28;20689;-68
2023/05/14 07:38:32;;;;;;;26.70;17.45;;;;;;;;;;5038158;28;20250;-69
2023/05/14 07:40:57;;;;;;;22.95;16.73;;;;;;;;;;5045785;28;20590;-69
2023/05/14 07:43:23;;;;;;;21.13;16.80;;;;;;;;;;5042013;28;20295;-68
2023/05/14 07:45:48;;;;;;;19.75;15.32;;;;;;;;;;5037689;28;20626;-69
2023/05/14 07:48:14;;;;;;;19.70;14.55;;;;;;;;;;5042581;28;20302;-69
2023/05/14 07:50:39;;;;;;;17.00;12.20;;;;;;;;;;5050052;28;20540;-69
2023/05/14 07:53:05;;;;;;;21.10;14.35;;;;;;;;;;5052177;28;20621;-68
2023/05/14 07:55:30;;;;;;;19.70;14.48;;;;;;;;;;5040098;28;20295;-69
2023/05/14 07:57:55;;;;;;;20.13;14.55;;;;;;;;;;5035239;28;20197;-68
2023/05/14 08:00:21;;;;;;;18.73;14.32;;;;;;;;;;5039807;28;20213;-69
2023/05/14 08:02:47;;;;;;;20.38;15.30;;;;;;;;;;5043858;28;20244;-69
2023/05/14 08:05:13;;;;;;;21.98;14.18;;;;;;;;;;5036858;28;20253;-69
2023/05/14 08:07:38;;;;;;;17.30;14.77;;;;;;;;;;5046347;28;20190;-68
2023/05/14 08:10:06;;;;;;;22.02;15.55;;;;;;;;;;5037082;28;20270;-69
2023/05/14 08:12:32;;;;;;;19.58;14.73;;;;;;;;;;5041284;28;20682;-69
2023/05/14 08:14:57;;;;;;;19.45;15.20;;;;;;;;;;5047484;28;20197;-68
2023/05/14 08:17:22;;;;;;;23.50;15.60;;;;;;;;;;5043311;28;20727;-68
2023/05/14 08:19:48;;;;;;;17.13;15.07;;;;;;;;;;5037048;28;20196;-70
2023/05/14 08:22:14;;;;;;;19.77;16.17;;;;;;;;;;5030320;28;20194;-69
2023/05/14 08:24:39;;;;;;;21.75;16.58;;;;;;;;;;5038193;28;20213;-69
2023/05/14 08:27:05;;;;;;;21.90;16.27;;;;;;;;;;5039052;28;20280;-69
2023/05/14 08:29:30;;;;;;;20.52;16.60;;;;;;;;;;5033136;28;20533;-69
2023/05/14 08:31:56;;;;;;;21.50;16.58;;;;;;;;;;5036761;28;20687;-70
2023/05/14 08:34:21;;;;;;;22.15;14.95;;;;;;;;;;5044404;28;20748;-69
2023/05/14 08:36:46;;;;;;;17.73;14.38;;;;;;;;;;5038101;28;20642;-69
2023/05/14 08:39:12;;;;;;;16.92;14.25;;;;;;;;;;5038254;28;20196;-68
2023/05/14 08:41:39;;;;;;;16.65;13.43;;;;;;;;;;5042885;28;20189;-69
2023/05/14 08:44:13;;;;;;;18.83;13.15;;;;;;;;;;5035453;28;20615;-68
2023/05/14 08:46:40;;;;;;;17.17;13.23;;;;;;;;;;5042607;28;20310;-69
2023/05/14 08:49:19;;;;;;;19.10;14.02;;;;;;;;;;5044558;28;20193;-69
2023/05/14 08:51:47;;;;;;;20.88;14.77;;;;;;;;;;5034425;28;20244;-69
2023/05/14 08:54:16;;;;;;;21.70;14.65;;;;;;;;;;5035854;28;20513;-68
2023/05/14 08:56:44;;;;;;;18.48;15.30;;;;;;;;;;5034185;28;20197;-69
2023/05/14 08:59:09;;;;;;;20.98;15.68;;;;;;;;;;5036115;28;20186;-69
2023/05/14 09:01:37;;;;;;;18.13;14.13;;;;;;;;;;5031103;28;20277;-70
2023/05/14 09:04:07;;;;;;;16.08;14.38;;;;;;;;;;5030631;28;20213;-69
2023/05/14 09:06:36;;;;;;;19.08;15.57;;;;;;;;;;5033087;28;20244;-69
2023/05/14 09:09:02;;;;;;;21.50;16.08;;;;;;;;;;5035538;28;20194;-70
2023/05/14 09:11:28;;;;;;;21.88;16.48;;;;;;;;;;5028796;28;20271;-68
2023/05/14 09:13:53;;;;;;;16.95;15.13;;;;;;;;;;5039756;28;20197;-68
2023/05/14 09:16:19;;;;;;;18.42;15.15;;;;;;;;;;5046445;28;20202;-68
2023/05/14 09:18:46;;;;;;;23.23;16.67;;;;;;;;;;5039095;28;20274;-68
2023/05/14 09:21:14;;;;;;;18.75;16.08;;;;;;;;;;5034431;28;20185;-69
2023/05/14 09:23:44;;;;;;;18.63;16.00;;;;;;;;;;5036916;28;20564;-68
2023/05/14 09:26:10;;;;;;;18.38;16.38;;;;;;;;;;5043678;28;20181;-69
2023/05/14 09:28:39;;;;;;;19.35;16.80;;;;;;;;;;5042844;28;20262;-69
2023/05/14 09:31:05;;;;;;;18.52;16.63;;;;;;;;;;5043671;28;20767;-68
2023/05/14 09:33:31;;;;;;;19.73;16.45;;;;;;;;;;5037832;28;20192;-69
2023/05/14 09:36:01;;;;;;;19.25;16.20;;;;;;;;;;5039966;28;20236;-69
2023/05/14 09:38:32;;;;;;;21.10;16.52;;;;;;;;;;5041971;28;20304;-69
2023/05/14 09:40:59;;;;;;;23.83;16.15;;;;;;;;;;5037245;28;20231;-69
2023/05/14 09:43:25;;;;;;;20.35;17.15;;;;;;;;;;5045145;28;20219;-69
2023/05/14 09:45:53;;;;;;;20.33;15.90;;;;;;;;;;5034161;28;20638;-69
2023/05/14 09:48:19;;;;;;;19.55;16.33;;;;;;;;;;5040411;28;20186;-69
2023/05/14 09:50:45;;;;;;;18.85;16.38;;;;;;;;;;5046960;28;20521;-69
2023/05/14 09:53:12;;;;;;;21.70;15.65;;;;;;;;;;5042315;28;20189;-70
2023/05/14 09:55:38;;;;;;;17.08;14.93;;;;;;;;;;5033476;28;20321;-69
2023/05/14 09:58:04;;;;;;;20.45;15.25;;;;;;;;;;5033912;28;20205;-69
2023/05/14 10:00:31;;;;;;;21.20;14.65;;;;;;;;;;5038197;28;20206;-68
2023/05/14 10:02:57;;;;;;;18.50;15.38;;;;;;;;;;5035276;28;20282;-70
2023/05/14 10:05:23;;;;;;;16.25;14.63;;;;;;;;;;5046823;28;20295;-68
2023/05/14 10:07:52;;;;;;;16.10;14.50;;;;;;;;;;5044181;28;20189;-69
2023/05/14 10:10:25;;;;;;;17.02;14.73;;;;;;;;;;5032805;28;20277;-68
2023/05/14 10:12:55;;;;;;;16.80;15.00;;;;;;;;;;5034800;28;20189;-69
2023/05/14 10:15:35;;;;;;;16.70;13.05;;;;;;;;;;5047795;28;20192;-68
2023/05/14 10:18:06;;;;;;;14.05;12.68;;;;;;;;;;5046230;28;20188;-68
2023/05/14 10:20:33;;;;;;;21.13;12.48;;;;;;;;;;5047454;28;20592;-68
2023/05/14 10:22:59;;;;;;;14.45;10.25;;;;;;;;;;5033946;28;20182;-70
2023/05/14 10:25:25;;;;;;;14.70;10.40;;;;;;;;;;5040356;28;20193;-68
2023/05/14 10:27:51;;;;;;;12.73;10.05;;;;;;;;;;5041108;28;20621;-69
2023/05/14 10:30:20;;;;;;;12.73;10.10;;;;;;;;;;5046249;28;20231;-70
2023/05/14 10:32:45;;;;;;;13.20;10.07;;;;;;;;;;5044809;28;20193;-70
2023/05/14 10:35:16;;;;;;;14.38;11.15;;;;;;;;;;5046638;28;20200;-69
2023/05/14 10:37:43;;;;;;;15.55;10.20;;;;;;;;;;5037718;28;20208;-69
2023/05/14 10:40:09;;;;;;;11.15;8.88;;;;;;;;;;5049083;28;20194;-68
2023/05/14 10:42:39;;;;;;;11.00;7.45;;;;;;;;;;5035975;28;20626;-68
2023/05/14 10:45:14;;;;;;;10.52;7.20;;;;;;;;;;5046301;28;20271;-69
2023/05/14 10:47:46;;;;;;;12.80;6.65;;;;;;;;;;5049507;28;20233;-69
2023/05/14 10:50:14;;;;;;;11.80;6.43;;;;;;;;;;5049885;28;20188;-69
2023/05/14 10:52:41;;;;;;;12.10;6.25;;;;;;;;;;5040391;28;20189;-69
2023/05/14 10:55:07;;;;;;;14.23;6.97;;;;;;;;;;5034697;28;20212;-69
2023/05/14 10:57:36;;;;;;;8.98;6.72;;;;;;;;;;5050190;28;20764;-69
2023/05/14 11:00:02;;;;;;;9.20;6.43;;;;;;;;;;5049701;28;20595;-69
2023/05/14 11:02:31;;;;;;;10.73;5.85;;;;;;;;;;5051350;28;20231;-69
2023/05/14 11:05:02;;;;;;;12.02;5.90;;;;;;;;;;5046230;28;20213;-69
2023/05/14 11:07:47;;;;;;;6.45;5.43;;;;;;;;;;5041286;28;20503;-68
2023/05/14 11:10:18;;;;;;;7.65;5.30;;;;;;;;;;5036397;28;20236;-69
2023/05/14 11:12:45;;;;;;;9.52;5.70;;;;;;;;;;5032687;28;20583;-69
2023/05/14 11:15:13;;;;;;;6.93;6.20;;;;;;;;;;5050868;28;20174;-68
2023/05/14 11:17:40;;;;;;;12.40;6.72;;;;;;;;;;5050441;28;20220;-68
2023/05/14 11:20:06;;;;;;;9.05;6.70;;;;;;;;;;5046966;28;20186;-69
2023/05/14 11:22:32;;;;;;;8.20;6.43;;;;;;;;;;5040115;28;20186;-69
2023/05/14 11:24:58;;;;;;;10.60;6.00;;;;;;;;;;5047150;28;20212;-69
2023/05/14 11:27:23;;;;;;;5.50;4.90;;;;;;;;;;5048300;28;20189;-70
2023/05/14 11:29:49;;;;;;;9.35;6.65;;;;;;;;;;5037100;28;20190;-71
2023/05/14 11:32:16;;;;;;;7.43;5.00;;;;;;;;;;5043862;28;20271;-69
2023/05/14 11:34:45;;;;;;;5.68;5.05;;;;;;;;;;5044387;28;20207;-70
2023/05/14 11:37:12;;;;;;;5.95;4.50;;;;;;;;;;5047300;28;20199;-69
2023/05/14 11:39:38;;;;;;;6.80;5.45;;;;;;;;;;5046815;28;20466;-70
2023/05/14 11:42:08;;;;;;;7.65;5.05;;;;;;;;;;5047544;28;20203;-70
2023/05/14 11:44:34;;;;;;;12.43;5.65;;;;;;;;;;5047497;28;20237;-70
2023/05/14 11:47:03;;;;;;;7.50;5.55;;;;;;;;;;5053934;28;20250;-69
2023/05/14 11:49:29;;;;;;;8.85;6.20;;;;;;;;;;5038734;28;20177;-69
2023/05/14 11:51:58;;;;;;;7.20;5.22;;;;;;;;;;5040354;28;20192;-69
2023/05/14 11:54:25;;;;;;;8.82;5.45;;;;;;;;;;5041334;28;20201;-70
2023/05/14 11:56:51;;;;;;;6.35;5.18;;;;;;;;;;5048952;28;20271;-70
2023/05/14 11:59:18;;;;;;;6.60;5.30;;;;;;;;;;5047783;28;20676;-70
2023/05/14 12:01:45;;;;;;;5.90;4.72;;;;;;;;;;5035140;28;20206;-70
2023/05/14 12:04:11;;;;;;;5.88;4.43;;;;;;;;;;5039847;28;20206;-70
2023/05/14 12:06:37;;;;;;;10.02;4.93;;;;;;;;;;5038630;28;20185;-70
2023/05/14 12:09:04;;;;;;;6.25;4.50;;;;;;;;;;5035142;28;20661;-69
2023/05/14 12:11:30;;;;;;;7.82;5.13;;;;;;;;;;5030282;28;20281;-71
2023/05/14 12:13:57;;;;;;;10.88;4.43;;;;;;;;;;5045079;28;20189;-69
2023/05/14 12:16:22;;;;;;;9.32;4.25;;;;;;;;;;5032075;28;20197;-70
2023/05/14 12:18:47;;;;;;;8.05;4.30;;;;;;;;;;5040177;28;20247;-70
2023/05/14 12:21:13;;;;;;;7.82;4.30;;;;;;;;;;5045881;28;20236;-71
2023/05/14 12:23:38;;;;;;;6.65;3.90;;;;;;;;;;5045078;28;20248;-70
2023/05/14 12:26:06;;;;;;;4.95;3.90;;;;;;;;;;5044891;28;20244;-69
2023/05/14 12:28:32;;;;;;;7.88;4.22;;;;;;;;;;5041923;28;20260;-70
2023/05/14 12:30:58;;;;;;;7.40;4.15;;;;;;;;;;5041318;28;20268;-70
2023/05/14 12:33:25;;;;;;;4.00;3.60;;;;;;;;;;5047997;28;20225;-70
2023/05/14 12:36:00;;;;;;;6.93;3.80;;;;;;;;;;5045051;28;20188;-70
2023/05/14 12:38:25;;;;;;;10.98;3.78;;;;;;;;;;5042872;28;20193;-70
2023/05/14 12:40:50;;;;;;;7.72;5.55;;;;;;;;;;5045366;28;20189;-68
2023/05/14 12:43:16;;;;;;;5.93;4.10;;;;;;;;;;5042702;28;20189;-69
2023/05/14 12:45:41;;;;;;;4.35;3.20;;;;;;;;;;4336814;28;10000832;-69
2023/05/14 12:48:06;;;;;;;9.50;4.10;;;;;;;;;;5043968;28;20403;-69
2023/05/14 12:50:32;;;;;;;6.85;4.80;;;;;;;;;;5026444;28;20198;-69
2023/05/14 12:52:57;;;;;;;5.43;4.15;;;;;;;;;;5028040;28;20186;-69
2023/05/14 12:55:22;;;;;;;6.28;3.95;;;;;;;;;;5042051;28;20189;-69
2023/05/14 12:57:48;;;;;;;7.22;4.03;;;;;;;;;;5037790;28;20189;-69
2023/05/14 13:00:14;;;;;;;4.85;3.63;;;;;;;;;;5044359;28;20221;-70
2023/05/14 13:02:39;;;;;;;5.90;3.30;;;;;;;;;;5043888;28;20197;-69
2023/05/14 13:05:05;;;;;;;6.90;3.58;;;;;;;;;;5035318;28;20209;-69
2023/05/14 13:07:30;;;;;;;5.40;3.90;;;;;;;;;;5042694;28;20231;-68
2023/05/14 13:09:56;;;;;;;8.10;4.15;;;;;;;;;;5033442;28;20199;-70
2023/05/14 13:12:22;;;;;;;7.78;3.72;;;;;;;;;;5027837;28;20186;-70
2023/05/14 13:14:47;;;;;;;8.27;3.83;;;;;;;;;;5043196;28;20193;-68
2023/05/14 13:17:13;;;;;;;9.55;3.40;;;;;;;;;;5042126;28;20544;-70
2023/05/14 13:19:38;;;;;;;6.55;3.63;;;;;;;;;;5027248;28;20213;-69
2023/05/14 13:22:03;;;;;;;5.47;3.28;;;;;;;;;;5037114;28;20390;-69
2023/05/14 13:24:29;;;;;;;4.80;3.35;;;;;;;;;;5042500;28;20213;-69
2023/05/14 13:26:54;;;;;;;5.30;3.80;;;;;;;;;;5032715;28;20193;-70
2023/05/14 13:29:20;;;;;;;4.30;2.88;;;;;;;;;;5041755;28;20205;-69
2023/05/14 13:31:45;;;;;;;3.75;3.20;;;;;;;;;;5042914;28;20923;-69
2023/05/14 13:34:11;;;;;;;6.53;3.40;;;;;;;;;;5038310;28;20201;-69
2023/05/14 13:36:38;;;;;;;8.30;3.63;;;;;;;;;;5031481;28;20186;-69
2023/05/14 13:39:05;;;;;;;4.68;3.50;;;;;;;;;;5040728;28;20213;-69
2023/05/14 13:41:33;;;;;;;4.65;3.53;;;;;;;;;;5042561;28;20331;-69
2023/05/14 13:43:59;;;;;;;4.95;3.42;;;;;;;;;;5040476;28;20555;-70
2023/05/14 13:46:24;;;;;;;5.30;3.63;;;;;;;;;;5040861;28;20657;-69
2023/05/14 13:48:50;;;;;;;5.20;3.55;;;;;;;;;;5041765;28;20189;-69
2023/05/14 13:51:15;;;;;;;7.22;3.83;;;;;;;;;;5044463;28;20521;-69
2023/05/14 13:53:41;;;;;;;7.78;3.70;;;;;;;;;;5041835;28;20524;-69
2023/05/14 13:56:07;;;;;;;7.00;3.10;;;;;;;;;;5039254;28;20201;-70
2023/05/14 13:58:32;;;;;;;7.35;3.00;;;;;;;;;;5042219;28;20550;-69
2023/05/14 14:00:58;;;;;;;9.50;3.10;;;;;;;;;;5035548;28;20210;-70
2023/05/14 14:03:23;;;;;;;5.93;2.78;;;;;;;;;;5040890;28;20197;-69
2023/05/14 14:05:50;;;;;;;6.97;3.05;;;;;;;;;;5039708;28;20432;-69
2023/05/14 14:08:16;;;;;;;7.93;3.20;;;;;;;;;;5038334;28;20193;-69
2023/05/14 14:10:41;;;;;;;4.53;3.10;;;;;;;;;;5034800;28;20186;-69
2023/05/14 14:13:08;;;;;;;5.80;3.35;;;;;;;;;;5030978;28;20208;-69
2023/05/14 14:15:33;;;;;;;4.78;3.63;;;;;;;;;;5034903;28;20361;-69
2023/05/14 14:17:59;;;;;;;5.25;3.17;;;;;;;;;;5040570;28;20187;-69